createdAt,value
2022-11-10T00:02:33.408Z,40.50
2022-11-10T00:05:18.697Z,41.67
2022-11-10T00:08:06.779Z,38.20
2022-11-10T00:10:58.123Z,39.50
2022-11-10T00:14:01.983Z,41.20
2022-11-10T00:17:02.630Z,34.97
2022-11-10T00:19:48.214Z,35.87
2022-11-10T00:22:35.177Z,38.23
2022-11-10T00:25:21.329Z,39.53
2022-11-10T00:28:06.661Z,42.83
2022-11-10T00:30:51.940Z,45.07
2022-11-10T00:33:38.998Z,40.23
2022-11-10T00:36:24.827Z,42.03
2022-11-10T00:39:11.623Z,40.77
2022-11-10T00:41:57.346Z,41.43
2022-11-10T00:44:45.336Z,45.03
2022-11-10T00:47:30.657Z,37.53
2022-11-10T00:50:16.421Z,44.33
2022-11-10T00:53:01.959Z,41.70
2022-11-10T00:55:47.564Z,41.40
2022-11-10T00:58:32.953Z,42.07
2022-11-10T01:01:20.013Z,40.17
2022-11-10T01:04:05.324Z,38.63
2022-11-10T01:06:52.850Z,40.10
2022-11-10T01:09:38.177Z,39.10
2022-11-10T01:12:23.199Z,43.87
2022-11-10T01:15:09.201Z,45.00
2022-11-10T01:17:56.212Z,47.33
2022-11-10T01:20:41.424Z,49.30
2022-11-10T01:23:26.984Z,53.30
2022-11-10T01:26:13.096Z,50.03
2022-11-10T01:28:58.606Z,52.83
2022-11-10T01:31:44.429Z,53.10
2022-11-10T01:34:30.244Z,45.10
2022-11-10T01:37:15.848Z,47.07
2022-11-10T01:40:01.309Z,47.47
2022-11-10T01:42:58.617Z,45.93
2022-11-10T01:46:05.179Z,50.50
2022-11-10T01:48:56.603Z,47.33
2022-11-10T01:51:44.355Z,50.17
2022-11-10T01:54:37.241Z,48.73
2022-11-10T01:57:22.939Z,46.97
2022-11-10T02:00:09.260Z,41.20
2022-11-10T02:03:02.536Z,42.33
2022-11-10T02:05:49.239Z,45.33
2022-11-10T02:08:36.941Z,37.30
2022-11-10T02:11:23.624Z,42.03
2022-11-10T02:14:09.879Z,41.27
2022-11-10T02:16:56.160Z,38.07
2022-11-10T02:19:42.150Z,40.93
2022-11-10T02:22:27.449Z,41.77
2022-11-10T02:25:17.699Z,43.90
2022-11-10T02:28:02.995Z,42.67
2022-11-10T02:30:48.861Z,41.20
2022-11-10T02:33:34.159Z,45.20
2022-11-10T02:36:19.379Z,43.27
2022-11-10T02:39:04.833Z,44.40
2022-11-10T02:41:50.073Z,59.53
2022-11-10T02:44:35.261Z,84.80
2022-11-10T02:47:20.690Z,66.93
2022-11-10T02:50:06.358Z,63.97
2022-11-10T02:52:52.104Z,65.87
2022-11-10T02:55:37.494Z,59.43
2022-11-10T02:58:22.802Z,82.63
2022-11-10T03:01:08.484Z,88.50
2022-11-10T03:03:53.805Z,121.80
2022-11-10T03:06:39.062Z,109.53
2022-11-10T03:09:24.207Z,99.00
2022-11-10T03:12:09.482Z,92.50
2022-11-10T03:14:54.696Z,90.87
2022-11-10T03:17:40.626Z,80.03
2022-11-10T03:20:25.990Z,56.73
2022-11-10T03:23:11.302Z,61.83
2022-11-10T03:25:56.738Z,61.90
2022-11-10T03:28:42.074Z,56.97
2022-11-10T03:31:27.407Z,52.23
2022-11-10T03:34:12.573Z,49.53
2022-11-10T03:36:57.851Z,49.03
2022-11-10T03:39:43.259Z,54.87
2022-11-10T03:42:28.655Z,45.00
2022-11-10T03:45:15.940Z,44.93
2022-11-10T03:48:01.233Z,48.57
2022-11-10T03:50:46.706Z,48.03
2022-11-10T03:53:32.144Z,49.73
2022-11-10T03:56:17.538Z,48.03
2022-11-10T03:59:02.577Z,50.30
2022-11-10T04:01:48.038Z,46.13
2022-11-10T04:04:51.796Z,52.10
2022-11-10T04:07:55.944Z,54.73
2022-11-10T04:10:41.422Z,47.50
2022-11-10T04:13:45.191Z,49.60
2022-11-10T04:16:30.705Z,53.83
2022-11-10T04:19:16.313Z,54.57
2022-11-10T04:22:02.011Z,44.30
2022-11-10T04:24:47.332Z,46.20
2022-11-10T04:27:32.710Z,54.93
2022-11-10T04:30:18.069Z,50.00
2022-11-10T04:33:03.574Z,50.13
2022-11-10T04:35:48.870Z,47.33
2022-11-10T04:38:34.601Z,48.17
2022-11-10T04:41:19.973Z,47.73
2022-11-10T04:44:05.940Z,45.10
2022-11-10T04:46:51.387Z,45.30
2022-11-10T04:49:36.785Z,41.57
2022-11-10T04:52:22.054Z,40.90
2022-11-10T04:55:07.687Z,35.53
2022-11-10T04:57:53.355Z,38.97
2022-11-10T05:00:39.628Z,37.80
2022-11-10T05:03:26.693Z,37.30
2022-11-10T05:06:12.266Z,37.97
2022-11-10T05:08:57.576Z,31.00
2022-11-10T05:11:42.945Z,33.30
2022-11-10T05:14:28.233Z,36.17
2022-11-10T05:17:13.538Z,35.77
2022-11-10T05:19:58.895Z,27.37
2022-11-10T05:23:08.218Z,31.23
2022-11-10T05:25:54.053Z,29.43
2022-11-10T05:28:40.665Z,26.40
2022-11-10T05:31:26.257Z,30.43
2022-11-10T05:34:11.829Z,31.57
2022-11-10T05:36:57.250Z,31.73
2022-11-10T05:39:42.666Z,32.97
2022-11-10T05:42:28.060Z,27.27
2022-11-10T05:45:14.288Z,29.13
2022-11-10T05:47:59.770Z,26.20
2022-11-10T05:50:45.631Z,26.37
2022-11-10T05:53:31.428Z,25.40
2022-11-10T05:56:16.787Z,26.13
2022-11-10T05:59:02.034Z,22.13
2022-11-10T06:01:47.344Z,24.37
2022-11-10T06:04:35.207Z,26.50
2022-11-10T06:07:20.524Z,37.03
2022-11-10T06:10:06.894Z,27.90
2022-11-10T06:12:52.379Z,26.27
2022-11-10T06:15:37.909Z,26.80
2022-11-10T06:18:23.472Z,30.93
2022-11-10T06:21:08.786Z,26.80
2022-11-10T06:23:54.110Z,25.27
2022-11-10T06:26:39.430Z,30.80
2022-11-10T06:29:26.943Z,28.80
2022-11-10T06:32:12.632Z,28.27
2022-11-10T06:35:00.518Z,27.50
2022-11-10T06:37:46.407Z,27.57
2022-11-10T06:40:32.124Z,30.03
2022-11-10T06:43:17.639Z,29.63
2022-11-10T06:46:02.887Z,28.13
2022-11-10T06:48:48.181Z,29.60
2022-11-10T06:51:33.600Z,35.40
2022-11-10T06:54:19.042Z,32.77
2022-11-10T06:57:04.457Z,44.63
2022-11-10T06:59:49.837Z,40.80
2022-11-10T07:02:35.108Z,43.67
2022-11-10T07:05:20.336Z,41.73
2022-11-10T07:08:16.134Z,41.83
2022-11-10T07:11:01.619Z,42.23
2022-11-10T07:13:46.854Z,42.87
2022-11-10T07:16:32.057Z,47.63
2022-11-10T07:19:17.400Z,48.53
2022-11-10T07:22:07.993Z,51.40
2022-11-10T07:24:55.807Z,48.47
2022-11-10T07:27:41.152Z,46.17
2022-11-10T07:30:28.158Z,38.23
2022-11-10T07:33:15.141Z,43.63
2022-11-10T07:36:03.555Z,38.28
2022-11-10T07:38:49.206Z,39.92
2022-11-10T07:41:34.752Z,40.08
2022-11-10T07:44:19.945Z,31.73
2022-11-10T07:47:05.561Z,39.03
2022-11-10T07:49:51.035Z,40.70
2022-11-10T07:52:36.138Z,41.80
2022-11-10T07:55:22.053Z,40.42
2022-11-10T07:58:08.206Z,41.03
2022-11-10T08:00:53.910Z,42.38
2022-11-10T08:03:39.105Z,40.92
2022-11-10T08:06:24.446Z,40.63
2022-11-10T08:09:09.706Z,38.08
2022-11-10T08:11:55.508Z,44.85
2022-11-10T08:14:40.780Z,39.22
2022-11-10T08:17:26.009Z,38.22
2022-11-10T08:20:11.691Z,38.60
2022-11-10T08:23:07.349Z,34.10
2022-11-10T08:25:53.133Z,42.10
2022-11-10T08:28:38.422Z,39.30
2022-11-10T08:31:24.746Z,44.45
2022-11-10T08:34:10.167Z,42.53
2022-11-10T08:36:55.712Z,45.00
2022-11-10T08:39:41.423Z,42.00
2022-11-10T08:42:26.627Z,38.22
2022-11-10T08:45:12.762Z,40.65
2022-11-10T08:48:03.771Z,46.78
2022-11-10T08:50:50.183Z,45.03
2022-11-10T08:53:35.582Z,43.60
2022-11-10T08:56:20.954Z,43.58
2022-11-10T08:59:06.344Z,42.60
2022-11-10T09:01:51.580Z,43.92
2022-11-10T09:04:36.916Z,44.03
2022-11-10T09:07:22.186Z,44.47
2022-11-10T09:10:08.416Z,41.15
2022-11-10T09:12:53.979Z,45.05
2022-11-10T09:15:39.904Z,46.88
2022-11-10T09:18:25.203Z,45.33
2022-11-10T09:21:12.107Z,48.35
2022-11-10T09:23:57.529Z,42.55
2022-11-10T09:26:45.434Z,41.58
2022-11-10T09:29:30.866Z,43.35
2022-11-10T09:32:16.489Z,45.90
2022-11-10T09:35:02.523Z,42.08
2022-11-10T09:37:48.049Z,40.78
2022-11-10T09:41:07.537Z,36.72
2022-11-10T09:44:29.394Z,42.80
2022-11-10T09:47:55.616Z,38.35
2022-11-10T09:50:43.962Z,37.38
2022-11-10T09:53:47.473Z,36.35
2022-11-10T09:56:35.397Z,39.42
2022-11-10T09:59:26.751Z,36.40
2022-11-10T10:02:12.060Z,35.38
2022-11-10T10:05:31.766Z,32.80
2022-11-10T10:08:26.725Z,32.83
2022-11-10T10:11:27.068Z,33.55
2022-11-10T10:14:21.791Z,35.53
2022-11-10T10:17:07.063Z,35.58
2022-11-10T10:20:00.673Z,33.50
2022-11-10T10:23:01.055Z,34.50
2022-11-10T10:25:47.032Z,34.10
2022-11-10T10:28:38.062Z,34.45
2022-11-10T10:31:32.847Z,34.72
2022-11-10T10:34:25.961Z,37.13
2022-11-10T10:37:27.189Z,34.85
2022-11-10T10:40:18.585Z,34.50
2022-11-10T10:43:04.402Z,30.80
2022-11-10T10:46:11.952Z,31.33
2022-11-10T10:49:36.972Z,28.98
2022-11-10T10:52:25.254Z,29.73
2022-11-10T10:55:13.277Z,31.27
2022-11-10T10:58:02.068Z,31.83
2022-11-10T11:00:51.845Z,31.40
2022-11-10T11:03:39.407Z,31.00
2022-11-10T11:06:32.613Z,30.45
2022-11-10T11:09:23.099Z,28.92
2022-11-10T11:12:12.263Z,31.15
2022-11-10T11:15:22.989Z,30.13
2022-11-10T11:18:15.494Z,28.25
2022-11-10T11:21:13.076Z,27.38
2022-11-10T11:24:07.559Z,28.42
2022-11-10T11:27:11.819Z,27.40
2022-11-10T11:30:03.749Z,27.25
2022-11-10T11:33:10.107Z,28.20
2022-11-10T11:36:35.699Z,31.95
2022-11-10T11:39:31.908Z,28.15
2022-11-10T11:42:48.710Z,28.85
2022-11-10T11:46:05.134Z,28.67
2022-11-10T11:49:29.119Z,28.02
2022-11-10T11:52:36.314Z,30.63
2022-11-10T11:55:53.958Z,29.17
2022-11-10T11:58:39.248Z,27.93
2022-11-10T12:01:55.799Z,28.75
2022-11-10T12:04:47.020Z,25.80
2022-11-10T12:07:43.246Z,29.00
2022-11-10T12:10:48.801Z,28.15
2022-11-10T12:13:51.044Z,28.98
2022-11-10T12:16:39.822Z,28.83
2022-11-10T12:19:44.800Z,28.15
2022-11-10T12:22:29.642Z,27.58
2022-11-10T12:25:49.111Z,26.63
2022-11-10T12:28:51.678Z,25.80
2022-11-10T12:31:39.011Z,27.40
2022-11-10T12:34:44.101Z,25.77
2022-11-10T12:37:38.563Z,26.98
2022-11-10T12:40:32.571Z,26.20
2022-11-10T12:43:23.090Z,26.45
2022-11-10T12:46:12.496Z,23.50
2022-11-10T12:49:07.952Z,26.95
2022-11-10T12:52:17.581Z,25.08
2022-11-10T12:55:03.767Z,25.95
2022-11-10T12:57:49.991Z,25.10
2022-11-10T13:00:42.991Z,25.13
2022-11-10T13:03:30.489Z,25.60
2022-11-10T13:06:28.869Z,25.48
2022-11-10T13:09:33.079Z,26.17
2022-11-10T13:12:23.827Z,24.40
2022-11-10T13:15:35.344Z,25.73
2022-11-10T13:18:29.939Z,26.52
2022-11-10T13:21:15.074Z,25.20
2022-11-10T13:24:02.657Z,27.13
2022-11-10T13:26:58.185Z,24.45
2022-11-10T13:29:43.510Z,28.65
2022-11-10T13:32:35.948Z,30.23
2022-11-10T13:35:30.672Z,30.45
2022-11-10T13:38:34.469Z,28.67
2022-11-10T13:41:25.784Z,28.27
2022-11-10T13:44:27.222Z,28.95
2022-11-10T13:47:56.861Z,27.90
2022-11-10T13:50:42.095Z,28.60
2022-11-10T13:53:36.699Z,28.42
2022-11-10T13:56:34.566Z,28.15
2022-11-10T13:59:28.615Z,28.48
2022-11-10T14:02:42.032Z,27.63
2022-11-10T14:05:30.806Z,28.25
2022-11-10T14:08:24.229Z,28.05
2022-11-10T14:11:18.238Z,31.13
2022-11-10T14:14:18.951Z,45.78
2022-11-10T14:17:14.390Z,27.40
2022-11-10T14:20:00.325Z,31.83
2022-11-10T14:22:47.597Z,27.92
2022-11-10T14:25:41.291Z,26.98
2022-11-10T14:28:37.923Z,24.55
2022-11-10T14:31:25.744Z,27.65
2022-11-10T14:34:15.819Z,28.67
2022-11-10T14:37:03.488Z,28.73
2022-11-10T14:39:55.445Z,27.73
2022-11-10T14:42:41.028Z,29.95
2022-11-10T14:45:28.404Z,28.63
2022-11-10T14:48:20.051Z,28.83
2022-11-10T14:51:18.528Z,28.73
2022-11-10T14:54:04.289Z,49.78
2022-11-10T14:56:49.769Z,39.13
2022-11-10T14:59:37.652Z,53.67
2022-11-10T15:02:23.130Z,81.90
2022-11-10T15:05:15.172Z,39.75
2022-11-10T15:08:05.146Z,38.33
2022-11-10T15:10:53.437Z,36.97
2022-11-10T15:13:39.973Z,35.97
2022-11-10T15:16:32.588Z,36.88
2022-11-10T15:19:23.288Z,53.03
2022-11-10T15:22:29.568Z,53.15
2022-11-10T15:25:21.115Z,35.38
2022-11-10T15:28:06.683Z,33.95
2022-11-10T15:30:57.866Z,34.80
2022-11-10T15:33:50.029Z,40.15
2022-11-10T15:36:41.040Z,34.70
2022-11-10T15:39:27.931Z,37.55
2022-11-10T15:42:22.573Z,32.15
2022-11-10T15:45:08.181Z,31.98
2022-11-10T15:47:53.943Z,32.40
2022-11-10T15:50:40.563Z,30.50
2022-11-10T15:53:32.921Z,35.75
2022-11-10T15:56:20.746Z,32.00
2022-11-10T15:59:06.344Z,33.72
2022-11-10T16:01:51.869Z,33.25
2022-11-10T16:04:37.389Z,34.45
2022-11-10T16:07:23.753Z,39.03
2022-11-10T16:10:09.311Z,36.38
2022-11-10T16:12:55.203Z,41.58
2022-11-10T16:15:41.461Z,40.30
2022-11-10T16:18:29.880Z,36.47
2022-11-10T16:21:23.422Z,37.40
2022-11-10T16:24:08.795Z,35.20
2022-11-10T16:26:54.309Z,37.35
2022-11-10T16:29:41.763Z,35.58
2022-11-10T16:32:27.324Z,34.40
2022-11-10T16:35:14.649Z,37.13
2022-11-10T16:38:00.234Z,34.28
2022-11-10T16:40:49.167Z,32.10
2022-11-10T16:43:34.613Z,35.42
2022-11-10T16:46:29.178Z,30.55
2022-11-10T16:49:28.556Z,32.03
2022-11-10T16:52:19.093Z,31.05
2022-11-10T16:55:05.021Z,30.42
2022-11-10T16:57:50.621Z,30.33
2022-11-10T17:00:36.946Z,33.30
2022-11-10T17:03:36.447Z,35.45
2022-11-10T17:06:24.836Z,36.35
2022-11-10T17:09:19.265Z,33.40
2022-11-10T17:12:04.809Z,34.92
2022-11-10T17:14:50.485Z,34.30
2022-11-10T17:17:36.933Z,35.25
2022-11-10T17:20:28.630Z,32.20
2022-11-10T17:23:16.317Z,32.47
2022-11-10T17:26:02.219Z,27.60
2022-11-10T17:28:47.793Z,26.50
2022-11-10T17:31:34.063Z,29.15
2022-11-10T17:34:19.434Z,26.45
2022-11-10T17:37:05.337Z,27.55
2022-11-10T17:39:50.925Z,27.38
2022-11-10T17:42:36.266Z,25.92
2022-11-10T17:45:24.559Z,27.33
2022-11-10T17:48:10.243Z,24.83
2022-11-10T17:50:56.053Z,27.58
2022-11-10T17:53:42.826Z,26.55
2022-11-10T17:56:28.243Z,28.43
2022-11-10T17:59:13.685Z,28.52
2022-11-10T18:02:01.150Z,28.10
2022-11-10T18:04:47.057Z,31.23
2022-11-10T18:07:32.970Z,33.83
2022-11-10T18:10:18.435Z,31.45
2022-11-10T18:13:03.754Z,31.02
2022-11-10T18:15:49.387Z,32.65
2022-11-10T18:18:35.697Z,34.10
2022-11-10T18:21:21.853Z,31.23
2022-11-10T18:24:07.413Z,35.53
2022-11-10T18:26:52.454Z,34.08
2022-11-10T18:29:37.693Z,44.47
2022-11-10T18:32:23.591Z,44.72
2022-11-10T18:35:09.161Z,36.78
2022-11-10T18:37:54.339Z,43.90
2022-11-10T18:40:40.077Z,40.95
2022-11-10T18:43:25.611Z,37.90
2022-11-10T18:46:11.581Z,34.92
2022-11-10T18:48:57.346Z,35.53
2022-11-10T18:51:43.028Z,34.00
2022-11-10T18:54:28.782Z,36.70
2022-11-10T18:57:16.604Z,41.80
2022-11-10T19:00:02.481Z,40.80
2022-11-10T19:02:48.178Z,45.23
2022-11-10T19:05:33.790Z,41.23
2022-11-10T19:08:19.065Z,41.67
2022-11-10T19:11:10.294Z,44.57
2022-11-10T19:13:58.385Z,42.43
2022-11-10T19:16:43.685Z,50.77
2022-11-10T19:19:29.133Z,51.73
2022-11-10T19:22:14.479Z,53.80
2022-11-10T19:25:08.490Z,62.07
2022-11-10T19:27:54.306Z,54.57
2022-11-10T19:30:41.755Z,45.00
2022-11-10T19:33:29.695Z,53.80
2022-11-10T19:36:18.065Z,78.03
2022-11-10T19:39:04.180Z,75.80
2022-11-10T19:41:49.951Z,65.00
2022-11-10T19:44:35.311Z,65.50
2022-11-10T19:47:20.924Z,51.80
2022-11-10T19:50:06.354Z,45.87
2022-11-10T19:52:52.086Z,47.07
2022-11-10T19:55:37.416Z,68.33
2022-11-10T19:58:22.814Z,67.73
2022-11-10T20:01:09.058Z,70.93
2022-11-10T20:03:54.609Z,43.80
2022-11-10T20:06:40.187Z,55.83
2022-11-10T20:09:25.735Z,61.03
2022-11-10T20:12:11.094Z,67.90
2022-11-10T20:14:56.446Z,66.80
2022-11-10T20:17:42.359Z,59.20
2022-11-10T20:20:27.738Z,60.33
2022-11-10T20:23:13.481Z,64.43
2022-11-10T20:26:07.070Z,53.67
2022-11-10T20:28:52.386Z,37.57
2022-11-10T20:31:38.672Z,31.67
2022-11-10T20:34:24.116Z,34.33
2022-11-10T20:37:09.846Z,35.10
2022-11-10T20:39:55.237Z,53.70
2022-11-10T20:42:42.854Z,52.77
2022-11-10T20:45:28.664Z,58.77
2022-11-10T20:48:14.793Z,62.87
2022-11-10T20:51:01.136Z,62.93
2022-11-10T20:53:47.682Z,65.03
2022-11-10T20:56:32.957Z,72.60
2022-11-10T20:59:18.490Z,105.50
2022-11-10T21:02:04.111Z,131.13
2022-11-10T21:04:49.682Z,122.00
2022-11-10T21:07:35.140Z,149.23
2022-11-10T21:10:20.456Z,119.63
2022-11-10T21:13:05.656Z,116.03
2022-11-10T21:15:53.684Z,108.30
2022-11-10T21:18:38.829Z,99.70
2022-11-10T21:21:28.078Z,113.53
2022-11-10T21:26:59.337Z,111.00
2022-11-10T21:29:44.674Z,121.90
2022-11-10T21:32:30.158Z,116.33
2022-11-10T21:35:16.119Z,110.67
2022-11-10T21:38:01.804Z,95.70
2022-11-10T21:40:47.127Z,101.03
2022-11-10T21:43:32.547Z,86.03
2022-11-10T21:46:18.516Z,88.03
2022-11-10T21:49:07.583Z,84.57
2022-11-10T21:51:53.369Z,91.27
2022-11-10T21:54:38.878Z,88.10
2022-11-10T21:57:24.375Z,92.53
2022-11-10T22:03:10.494Z,95.03
2022-11-10T22:05:56.058Z,86.20
2022-11-10T22:08:45.578Z,65.37
2022-11-10T22:14:53.796Z,80.23
2022-11-10T22:17:57.960Z,71.60
2022-11-10T22:20:43.283Z,61.07
2022-11-10T22:23:47.136Z,67.43
2022-11-10T22:26:32.455Z,62.70
2022-11-10T22:29:17.972Z,53.70
2022-11-10T22:32:03.901Z,54.93
2022-11-10T22:34:49.243Z,58.00
2022-11-10T22:37:34.607Z,60.90
2022-11-10T22:40:39.067Z,66.20
2022-11-10T22:43:42.975Z,62.83
2022-11-10T22:46:28.703Z,63.20
2022-11-10T22:49:15.879Z,62.73
2022-11-10T22:52:01.622Z,59.93
2022-11-10T22:54:47.048Z,74.67
2022-11-10T22:57:32.372Z,74.03
2022-11-10T23:00:17.976Z,70.53
2022-11-10T23:03:03.903Z,75.10
2022-11-10T23:05:56.501Z,81.00
2022-11-10T23:08:42.895Z,86.53
2022-11-10T23:11:30.893Z,111.37
2022-11-10T23:14:17.836Z,91.47
2022-11-10T23:17:03.481Z,85.87
2022-11-10T23:19:49.872Z,80.20
2022-11-10T23:22:35.098Z,76.67
2022-11-10T23:25:20.385Z,77.30
2022-11-10T23:28:05.773Z,75.13
2022-11-10T23:30:51.093Z,75.27
2022-11-10T23:33:37.857Z,70.93
2022-11-10T23:36:25.433Z,71.30
2022-11-10T23:39:10.691Z,76.33
2022-11-10T23:41:56.157Z,66.03
2022-11-10T23:44:41.402Z,39.30
2022-11-10T23:47:26.675Z,59.73
2022-11-10T23:50:12.001Z,39.67
2022-11-10T23:52:57.381Z,37.00
2022-11-10T23:55:43.200Z,39.20
